createdAt,value
2017-05-21T00:00:14.684Z,1016.91
2017-05-21T00:01:16.107Z,1016.94
2017-05-21T00:02:17.528Z,1016.93
2017-05-21T00:03:18.951Z,1016.91
2017-05-21T00:04:20.383Z,1016.92
2017-05-21T00:05:21.810Z,1016.94
2017-05-21T00:06:23.233Z,1016.93
2017-05-21T00:07:24.666Z,1016.95
2017-05-21T00:08:26.086Z,1016.97
2017-05-21T00:09:27.514Z,1016.98
2017-05-21T00:10:28.930Z,1016.90
2017-05-21T00:11:30.352Z,1016.99
2017-05-21T00:12:31.778Z,1016.99
2017-05-21T00:13:33.202Z,1016.96
2017-05-21T00:14:34.623Z,1017.01
2017-05-21T00:15:36.054Z,1017.00
2017-05-21T00:16:37.477Z,1017.01
2017-05-21T00:17:38.901Z,1017.02
2017-05-21T00:18:40.323Z,1017.01
2017-05-21T00:19:41.749Z,1017.01
2017-05-21T00:20:43.174Z,1017.01
2017-05-21T00:21:44.605Z,1017.02
2017-05-21T00:22:46.028Z,1017.02
2017-05-21T00:23:47.457Z,1017.01
2017-05-21T00:24:48.874Z,1017.01
2017-05-21T00:25:50.305Z,1017.03
2017-05-21T00:26:51.729Z,1017.02
2017-05-21T00:27:53.146Z,1017.04
2017-05-21T00:28:54.568Z,1017.05
2017-05-21T00:29:56.015Z,1017.04
2017-05-21T00:30:57.439Z,1017.06
2017-05-21T00:31:58.919Z,1017.03
2017-05-21T00:33:00.277Z,1017.03
2017-05-21T00:34:01.713Z,1017.03
2017-05-21T00:35:03.138Z,1017.02
2017-05-21T00:36:04.566Z,1017.00
2017-05-21T00:37:05.984Z,1016.99
2017-05-21T00:38:07.408Z,1017.05
2017-05-21T00:39:08.846Z,1017.00
2017-05-21T00:40:10.258Z,1017.01
2017-05-21T00:41:11.680Z,1017.03
2017-05-21T00:42:13.123Z,1017.01
2017-05-21T00:43:14.544Z,1017.04
2017-05-21T00:44:15.973Z,1017.08
2017-05-21T00:45:17.404Z,1017.02
2017-05-21T00:46:18.823Z,1017.07
2017-05-21T00:47:20.258Z,1017.06
2017-05-21T00:48:21.683Z,1017.01
2017-05-21T00:49:23.120Z,1017.01
2017-05-21T00:50:24.542Z,1017.02
2017-05-21T00:51:25.973Z,1017.02
2017-05-21T00:52:27.387Z,1017.03
2017-05-21T00:53:28.822Z,1017.02
2017-05-21T00:54:30.460Z,1017.05
2017-05-21T00:55:32.145Z,1017.04
2017-05-21T00:56:33.572Z,1017.01
2017-05-21T00:57:35.003Z,1017.05
2017-05-21T00:58:36.424Z,1017.04
2017-05-21T00:59:37.901Z,1017.03
2017-05-21T01:00:39.323Z,1017.02
2017-05-21T01:01:40.744Z,1017.01
2017-05-21T01:02:42.170Z,1017.00
2017-05-21T01:03:43.595Z,1017.03
2017-05-21T01:04:45.023Z,1017.00
2017-05-21T01:05:46.451Z,1016.99
2017-05-21T01:06:47.961Z,1016.96
2017-05-21T01:07:49.395Z,1016.97
2017-05-21T01:08:50.814Z,1016.94
2017-05-21T01:09:52.238Z,1016.96
2017-05-21T01:10:53.676Z,1017.03
2017-05-21T01:11:55.188Z,1017.00
2017-05-21T01:12:56.614Z,1017.05
2017-05-21T01:13:58.043Z,1017.03
2017-05-21T01:14:59.472Z,1017.00
2017-05-21T01:16:00.892Z,1017.06
2017-05-21T01:17:02.317Z,1016.99
2017-05-21T01:18:03.739Z,1017.05
2017-05-21T01:19:05.163Z,1017.05
2017-05-21T01:20:06.585Z,1017.02
2017-05-21T01:21:08.009Z,1017.03
2017-05-21T01:22:09.441Z,1017.05
2017-05-21T01:23:10.866Z,1017.06
2017-05-21T01:24:12.292Z,1017.04
2017-05-21T01:25:13.713Z,1017.04
2017-05-21T01:26:15.133Z,1017.04
2017-05-21T01:27:16.569Z,1017.05
2017-05-21T01:28:17.990Z,1017.03
2017-05-21T01:29:19.408Z,1017.06
2017-05-21T01:30:20.839Z,1017.08
2017-05-21T01:31:22.263Z,1017.09
2017-05-21T01:32:23.683Z,1017.04
2017-05-21T01:33:25.114Z,1017.05
2017-05-21T01:34:26.538Z,1017.09
2017-05-21T01:35:27.961Z,1017.12
2017-05-21T01:36:29.380Z,1017.08
2017-05-21T01:37:30.801Z,1017.12
2017-05-21T01:38:32.219Z,1017.10
2017-05-21T01:39:33.651Z,1017.13
2017-05-21T01:40:35.088Z,1017.14
2017-05-21T01:41:36.513Z,1017.09
2017-05-21T01:42:37.941Z,1017.10
2017-05-21T01:43:39.357Z,1017.13
2017-05-21T01:44:40.781Z,1017.12
2017-05-21T01:45:42.204Z,1017.08
2017-05-21T01:46:43.629Z,1017.09
2017-05-21T01:47:45.056Z,1017.06
2017-05-21T01:48:46.489Z,1017.11
2017-05-21T01:49:47.907Z,1017.10
2017-05-21T01:50:49.332Z,1017.10
2017-05-21T01:51:50.752Z,1017.09
2017-05-21T01:52:52.183Z,1017.13
2017-05-21T01:53:53.603Z,1017.10
2017-05-21T01:54:55.032Z,1017.12
2017-05-21T01:55:56.450Z,1017.08
2017-05-21T01:56:57.878Z,1017.05
2017-05-21T01:57:59.296Z,1017.06
2017-05-21T01:59:00.717Z,1017.05
2017-05-21T02:00:02.156Z,1017.02
2017-05-21T02:01:04.084Z,1017.04
2017-05-21T02:02:05.509Z,1017.05
2017-05-21T02:03:06.934Z,1017.05
2017-05-21T02:04:08.358Z,1017.06
2017-05-21T02:05:09.782Z,1017.05
2017-05-21T02:06:11.195Z,1017.05
2017-05-21T02:07:12.619Z,1017.05
2017-05-21T02:08:14.038Z,1017.08
2017-05-21T02:09:15.467Z,1017.02
2017-05-21T02:10:16.887Z,1017.02
2017-05-21T02:11:18.315Z,1017.04
2017-05-21T02:12:19.740Z,1017.02
2017-05-21T02:13:21.165Z,1017.01
2017-05-21T02:14:22.591Z,1017.03
2017-05-21T02:15:24.013Z,1017.01
2017-05-21T02:16:25.431Z,1017.04
2017-05-21T02:17:26.856Z,1017.03
2017-05-21T02:18:28.282Z,1016.99
2017-05-21T02:19:29.706Z,1017.04
2017-05-21T02:20:31.127Z,1017.04
2017-05-21T02:21:32.547Z,1017.01
2017-05-21T02:22:33.977Z,1017.03
2017-05-21T02:23:35.396Z,1017.01
2017-05-21T02:24:36.820Z,1017.03
2017-05-21T02:25:38.244Z,1017.08
2017-05-21T02:26:39.664Z,1017.09
2017-05-21T02:27:41.093Z,1017.11
2017-05-21T02:28:42.523Z,1017.07
2017-05-21T02:29:43.971Z,1017.05
2017-05-21T02:30:45.432Z,1017.07
2017-05-21T02:31:46.855Z,1017.05
2017-05-21T02:32:48.335Z,1017.07
2017-05-21T02:33:49.705Z,1017.03
2017-05-21T02:34:51.134Z,1017.07
2017-05-21T02:35:52.565Z,1017.03
2017-05-21T02:36:53.985Z,1017.03
2017-05-21T02:37:55.516Z,1017.02
2017-05-21T02:38:56.934Z,1017.12
2017-05-21T02:39:58.362Z,1017.06
2017-05-21T02:40:59.795Z,1017.03
2017-05-21T02:42:01.219Z,1017.06
2017-05-21T02:43:02.645Z,1017.04
2017-05-21T02:44:04.061Z,1017.02
2017-05-21T02:45:06.402Z,1017.06
2017-05-21T02:46:07.825Z,1017.07
2017-05-21T02:47:09.250Z,1017.09
2017-05-21T02:48:10.681Z,1017.05
2017-05-21T02:49:12.101Z,1017.07
2017-05-21T02:50:13.522Z,1017.08
2017-05-21T02:51:14.951Z,1017.10
2017-05-21T02:52:16.371Z,1017.08
2017-05-21T02:53:17.797Z,1017.04
2017-05-21T02:54:19.222Z,1017.12
2017-05-21T02:55:20.641Z,1017.12
2017-05-21T02:56:22.117Z,1017.12
2017-05-21T02:57:23.489Z,1017.10
2017-05-21T02:58:24.918Z,1017.12
2017-05-21T02:59:26.335Z,1017.10
2017-05-21T03:00:27.760Z,1017.16
2017-05-21T03:01:29.175Z,1017.20
2017-05-21T03:02:30.600Z,1017.20
2017-05-21T03:03:32.025Z,1017.18
2017-05-21T03:04:33.448Z,1017.16
2017-05-21T03:05:34.868Z,1017.18
2017-05-21T03:06:36.294Z,1017.13
2017-05-21T03:07:37.720Z,1017.14
2017-05-21T03:08:39.149Z,1017.14
2017-05-21T03:09:40.566Z,1017.14
2017-05-21T03:10:41.993Z,1017.11
2017-05-21T03:11:43.413Z,1017.19
2017-05-21T03:12:44.838Z,1017.17
2017-05-21T03:13:46.263Z,1017.16
2017-05-21T03:14:47.683Z,1017.20
2017-05-21T03:15:49.101Z,1017.15
2017-05-21T03:16:50.522Z,1017.15
2017-05-21T03:17:51.952Z,1017.18
2017-05-21T03:18:53.375Z,1017.17
2017-05-21T03:19:54.801Z,1017.19
2017-05-21T03:20:56.223Z,1017.17
2017-05-21T03:21:57.644Z,1017.17
2017-05-21T03:22:59.066Z,1017.16
2017-05-21T03:24:00.493Z,1017.16
2017-05-21T03:25:02.005Z,1017.14
2017-05-21T03:26:03.428Z,1017.18
2017-05-21T03:27:04.852Z,1017.15
2017-05-21T03:28:06.275Z,1017.14
2017-05-21T03:29:07.700Z,1017.14
2017-05-21T03:30:09.131Z,1017.17
2017-05-21T03:31:10.550Z,1017.16
2017-05-21T03:32:11.983Z,1017.20
2017-05-21T03:33:13.412Z,1017.17
2017-05-21T03:34:14.833Z,1017.19
2017-05-21T03:35:16.254Z,1017.15
2017-05-21T03:36:17.681Z,1017.16
2017-05-21T03:37:19.102Z,1017.15
2017-05-21T03:38:20.523Z,1017.15
2017-05-21T03:39:21.954Z,1017.15
2017-05-21T03:40:23.374Z,1017.16
2017-05-21T03:41:24.797Z,1017.19
2017-05-21T03:42:26.217Z,1017.22
2017-05-21T03:43:27.644Z,1017.19
2017-05-21T03:44:29.064Z,1017.21
2017-05-21T03:45:30.488Z,1017.23
2017-05-21T03:46:31.906Z,1017.23
2017-05-21T03:47:33.334Z,1017.24
2017-05-21T03:48:34.757Z,1017.25
2017-05-21T03:49:36.187Z,1017.28
2017-05-21T03:50:37.610Z,1017.27
2017-05-21T03:51:39.269Z,1017.29
2017-05-21T03:52:40.685Z,1017.27
2017-05-21T03:53:42.107Z,1017.24
2017-05-21T03:54:43.521Z,1017.25
2017-05-21T03:55:44.953Z,1017.29
2017-05-21T03:56:46.396Z,1017.28
2017-05-21T03:57:47.822Z,1017.24
2017-05-21T03:58:49.253Z,1017.28
2017-05-21T03:59:50.675Z,1017.27
2017-05-21T04:00:52.101Z,1017.31
2017-05-21T04:01:53.524Z,1017.33
2017-05-21T04:02:54.956Z,1017.34
2017-05-21T04:03:56.376Z,1017.32
2017-05-21T04:04:57.802Z,1017.33
2017-05-21T04:05:59.225Z,1017.35
2017-05-21T04:07:00.652Z,1017.32
2017-05-21T04:08:02.075Z,1017.34
2017-05-21T04:09:03.495Z,1017.35
2017-05-21T04:10:04.918Z,1017.36
2017-05-21T04:11:06.343Z,1017.41
2017-05-21T04:12:07.764Z,1017.36
2017-05-21T04:13:09.186Z,1017.37
2017-05-21T04:14:10.611Z,1017.39
2017-05-21T04:15:12.035Z,1017.40
2017-05-21T04:16:13.466Z,1017.42
2017-05-21T04:17:14.886Z,1017.37
2017-05-21T04:18:16.309Z,1017.41
2017-05-21T04:19:17.732Z,1017.38
2017-05-21T04:20:19.178Z,1017.41
2017-05-21T04:21:20.603Z,1017.37
2017-05-21T04:22:22.025Z,1017.35
2017-05-21T04:23:23.452Z,1017.45
2017-05-21T04:24:24.879Z,1017.37
2017-05-21T04:25:26.309Z,1017.38
2017-05-21T04:26:27.737Z,1017.41
2017-05-21T04:27:29.162Z,1017.42
2017-05-21T04:28:30.588Z,1017.42
2017-05-21T04:29:32.017Z,1017.44
2017-05-21T04:30:33.442Z,1017.40
2017-05-21T04:31:34.865Z,1017.41
2017-05-21T04:32:36.295Z,1017.45
2017-05-21T04:33:37.728Z,1017.46
2017-05-21T04:34:39.156Z,1017.43
2017-05-21T04:35:40.582Z,1017.47
2017-05-21T04:36:42.011Z,1017.46
2017-05-21T04:37:43.527Z,1017.49
2017-05-21T04:38:44.949Z,1017.49
2017-05-21T04:39:46.371Z,1017.48
2017-05-21T04:40:47.803Z,1017.50
2017-05-21T04:41:49.233Z,1017.53
2017-05-21T04:42:50.656Z,1017.51
2017-05-21T04:43:52.084Z,1017.55
2017-05-21T04:44:53.510Z,1017.52
2017-05-21T04:45:54.934Z,1017.52
2017-05-21T04:46:56.367Z,1017.53
2017-05-21T04:47:57.791Z,1017.52
2017-05-21T04:48:59.223Z,1017.51
2017-05-21T04:50:00.648Z,1017.53
2017-05-21T04:51:02.080Z,1017.51
2017-05-21T04:52:03.508Z,1017.49
2017-05-21T04:53:05.646Z,1017.54
2017-05-21T04:54:07.079Z,1017.52
2017-05-21T04:55:08.494Z,1017.52
2017-05-21T04:56:09.931Z,1017.54
2017-05-21T04:57:11.357Z,1017.52
2017-05-21T04:58:12.772Z,1017.53
2017-05-21T04:59:14.191Z,1017.51
2017-05-21T05:00:15.619Z,1017.52
2017-05-21T05:01:17.044Z,1017.47
2017-05-21T05:02:18.467Z,1017.56
2017-05-21T05:03:19.892Z,1017.54
2017-05-21T05:04:21.315Z,1017.55
2017-05-21T05:05:22.738Z,1017.56
2017-05-21T05:06:24.165Z,1017.57
2017-05-21T05:07:25.596Z,1017.61
2017-05-21T05:08:27.019Z,1017.59
2017-05-21T05:09:28.448Z,1017.60
2017-05-21T05:10:29.875Z,1017.57
2017-05-21T05:11:31.302Z,1017.67
2017-05-21T05:12:32.736Z,1017.66
2017-05-21T05:13:34.158Z,1017.69
2017-05-21T05:14:35.594Z,1017.67
2017-05-21T05:15:37.019Z,1017.70
2017-05-21T05:16:38.446Z,1017.69
2017-05-21T05:17:39.896Z,1017.68
2017-05-21T05:18:41.334Z,1017.73
2017-05-21T05:19:42.766Z,1017.67
2017-05-21T05:20:44.195Z,1017.72
2017-05-21T05:21:45.629Z,1017.69
2017-05-21T05:22:47.053Z,1017.74
2017-05-21T05:23:48.485Z,1017.73
2017-05-21T05:24:49.986Z,1017.77
2017-05-21T05:25:51.417Z,1017.75
2017-05-21T05:26:52.843Z,1017.77
2017-05-21T05:27:54.277Z,1017.75
2017-05-21T05:28:55.729Z,1017.75
2017-05-21T05:29:57.163Z,1017.77
2017-05-21T05:30:58.595Z,1017.74
2017-05-21T05:32:00.024Z,1017.76
2017-05-21T05:33:01.453Z,1017.78
2017-05-21T05:34:02.877Z,1017.79
2017-05-21T05:35:04.310Z,1017.80
2017-05-21T05:36:05.739Z,1017.80
2017-05-21T05:37:07.219Z,1017.81
2017-05-21T05:38:08.648Z,1017.82
2017-05-21T05:39:10.075Z,1017.85
2017-05-21T05:40:11.510Z,1017.84
2017-05-21T05:41:12.941Z,1017.84
2017-05-21T05:42:14.367Z,1017.86
2017-05-21T05:43:15.798Z,1017.87
2017-05-21T05:44:17.231Z,1017.89
2017-05-21T05:45:18.655Z,1017.81
2017-05-21T05:46:20.089Z,1017.83
2017-05-21T05:47:21.517Z,1017.81
2017-05-21T05:48:22.943Z,1017.85
2017-05-21T05:49:24.372Z,1017.84
2017-05-21T05:50:25.807Z,1017.82
2017-05-21T05:51:27.238Z,1017.86
2017-05-21T05:52:28.754Z,1017.85
2017-05-21T05:53:30.114Z,1017.84
2017-05-21T05:54:31.543Z,1017.81
2017-05-21T05:55:32.967Z,1017.85
2017-05-21T05:56:34.399Z,1017.86
2017-05-21T05:57:35.830Z,1017.87
2017-05-21T05:58:37.258Z,1017.83
2017-05-21T05:59:38.691Z,1017.84
2017-05-21T06:00:40.122Z,1017.86
2017-05-21T06:01:41.551Z,1017.89
2017-05-21T06:02:42.982Z,1017.88
2017-05-21T06:03:44.429Z,1017.90
2017-05-21T06:04:45.856Z,1017.89
2017-05-21T06:05:47.281Z,1017.96
2017-05-21T06:06:48.717Z,1017.92
2017-05-21T06:07:50.143Z,1017.96
2017-05-21T06:08:52.276Z,1017.97
2017-05-21T06:09:53.705Z,1018.02
2017-05-21T06:10:55.139Z,1018.03
2017-05-21T06:11:56.566Z,1018.02
2017-05-21T06:12:57.998Z,1017.99
2017-05-21T06:13:59.421Z,1018.05
2017-05-21T06:15:00.852Z,1018.05
2017-05-21T06:16:02.279Z,1018.07
2017-05-21T06:17:03.713Z,1018.03
2017-05-21T06:18:05.148Z,1018.03
2017-05-21T06:19:06.569Z,1018.06
2017-05-21T06:20:08.002Z,1018.11
2017-05-21T06:21:09.437Z,1018.09
2017-05-21T06:22:10.868Z,1018.11
2017-05-21T06:23:12.297Z,1018.12
2017-05-21T06:24:13.727Z,1018.06
2017-05-21T06:25:15.159Z,1018.08
2017-05-21T06:26:16.586Z,1018.06
2017-05-21T06:27:18.021Z,1018.06
2017-05-21T06:28:19.477Z,1018.04
2017-05-21T06:29:20.906Z,1018.10
2017-05-21T06:30:22.344Z,1018.07
2017-05-21T06:31:23.779Z,1018.06
2017-05-21T06:32:25.216Z,1018.05
2017-05-21T06:33:26.648Z,1018.09
2017-05-21T06:34:28.088Z,1018.07
2017-05-21T06:35:29.637Z,1018.10
2017-05-21T06:36:31.071Z,1018.06
2017-05-21T06:37:32.506Z,1018.07
2017-05-21T06:38:33.935Z,1018.08
2017-05-21T06:39:35.368Z,1018.08
2017-05-21T06:40:36.799Z,1018.09
2017-05-21T06:41:38.224Z,1018.11
2017-05-21T06:42:39.732Z,1018.14
2017-05-21T06:43:41.165Z,1018.16
2017-05-21T06:44:42.591Z,1018.17
2017-05-21T06:45:44.041Z,1018.17
2017-05-21T06:46:45.478Z,1018.15
2017-05-21T06:47:46.903Z,1018.13
2017-05-21T06:48:48.333Z,1018.17
2017-05-21T06:49:49.770Z,1018.14
2017-05-21T06:50:51.288Z,1018.16
2017-05-21T06:51:52.721Z,1018.18
2017-05-21T06:52:54.152Z,1018.20
2017-05-21T06:53:55.589Z,1018.16
2017-05-21T06:54:57.025Z,1018.16
2017-05-21T06:55:58.459Z,1018.20
2017-05-21T06:56:59.889Z,1018.22
2017-05-21T06:58:01.328Z,1018.17
2017-05-21T06:59:02.756Z,1018.17
2017-05-21T07:00:04.207Z,1018.23
2017-05-21T07:01:05.707Z,1018.20
2017-05-21T07:02:07.150Z,1018.20
2017-05-21T07:03:08.583Z,1018.20
2017-05-21T07:04:10.025Z,1018.22
2017-05-21T07:05:11.458Z,1018.24
2017-05-21T07:06:12.895Z,1018.20
2017-05-21T07:07:14.331Z,1018.21
2017-05-21T07:08:15.751Z,1018.21
2017-05-21T07:09:17.190Z,1018.27
2017-05-21T07:10:18.623Z,1018.25
2017-05-21T07:11:20.049Z,1018.26
2017-05-21T07:12:21.622Z,1018.26
2017-05-21T07:13:23.054Z,1018.34
2017-05-21T07:14:24.484Z,1018.35
2017-05-21T07:15:25.919Z,1018.35
2017-05-21T07:16:27.354Z,1018.37
2017-05-21T07:17:28.784Z,1018.35
2017-05-21T07:18:30.213Z,1018.36
2017-05-21T07:19:31.652Z,1018.37
2017-05-21T07:20:33.097Z,1018.32
2017-05-21T07:21:34.529Z,1018.36
2017-05-21T07:22:35.968Z,1018.35
2017-05-21T07:23:37.413Z,1018.39
2017-05-21T07:24:38.850Z,1018.38
2017-05-21T07:25:40.284Z,1018.37
2017-05-21T07:26:41.820Z,1018.38
2017-05-21T07:27:43.322Z,1018.38
2017-05-21T07:28:44.750Z,1018.39
2017-05-21T07:29:46.184Z,1018.41
2017-05-21T07:30:47.615Z,1018.41
2017-05-21T07:31:49.047Z,1018.40
2017-05-21T07:32:50.479Z,1018.37
2017-05-21T07:33:51.909Z,1018.40
2017-05-21T07:34:53.344Z,1018.40
2017-05-21T07:35:54.775Z,1018.35
2017-05-21T07:36:56.202Z,1018.33
2017-05-21T07:37:57.636Z,1018.36
2017-05-21T07:38:59.075Z,1018.37
2017-05-21T07:40:00.499Z,1018.40
2017-05-21T07:41:01.936Z,1018.41
2017-05-21T07:42:03.374Z,1018.39
2017-05-21T07:43:04.808Z,1018.38
2017-05-21T07:44:06.243Z,1018.37
2017-05-21T07:45:07.675Z,1018.41
2017-05-21T07:46:09.103Z,1018.41
2017-05-21T07:47:10.536Z,1018.41
2017-05-21T07:48:11.962Z,1018.44
2017-05-21T07:49:13.392Z,1018.45
2017-05-21T07:50:14.822Z,1018.42
2017-05-21T07:51:16.260Z,1018.39
2017-05-21T07:52:17.695Z,1018.39
2017-05-21T07:53:19.125Z,1018.36
2017-05-21T07:54:20.559Z,1018.38
2017-05-21T07:55:22.000Z,1018.37
2017-05-21T07:56:23.437Z,1018.38
2017-05-21T07:57:24.874Z,1018.39
2017-05-21T07:58:26.306Z,1018.36
2017-05-21T07:59:27.738Z,1018.38
2017-05-21T08:00:29.177Z,1018.36
2017-05-21T08:01:30.607Z,1018.35
2017-05-21T08:02:32.035Z,1018.36
2017-05-21T08:03:34.405Z,1018.40
2017-05-21T08:04:34.857Z,1018.33
2017-05-21T08:05:36.284Z,1018.34
2017-05-21T08:06:37.715Z,1018.34
2017-05-21T08:07:39.148Z,1018.37
2017-05-21T08:08:40.575Z,1018.34
2017-05-21T08:09:42.009Z,1018.35
2017-05-21T08:10:43.436Z,1018.32
2017-05-21T08:11:44.865Z,1018.33
2017-05-21T08:12:46.297Z,1018.29
2017-05-21T08:13:47.733Z,1018.35
2017-05-21T08:14:49.167Z,1018.32
2017-05-21T08:15:50.607Z,1018.34
2017-05-21T08:16:52.035Z,1018.32
2017-05-21T08:17:53.474Z,1018.37
2017-05-21T08:18:54.906Z,1018.36
2017-05-21T08:19:56.342Z,1018.39
2017-05-21T08:20:57.771Z,1018.36
2017-05-21T08:21:59.203Z,1018.40
2017-05-21T08:23:00.631Z,1018.33
2017-05-21T08:24:02.063Z,1018.34
2017-05-21T08:25:03.495Z,1018.37
2017-05-21T08:26:04.926Z,1018.39
2017-05-21T08:27:07.136Z,1018.38
2017-05-21T08:28:08.572Z,1018.41
2017-05-21T08:29:09.997Z,1018.39
2017-05-21T08:30:11.430Z,1018.36
2017-05-21T08:31:12.856Z,1018.38
2017-05-21T08:32:14.293Z,1018.37
2017-05-21T08:33:15.731Z,1018.36
2017-05-21T08:34:17.163Z,1018.37
2017-05-21T08:35:18.593Z,1018.37
2017-05-21T08:36:20.035Z,1018.35
2017-05-21T08:37:21.478Z,1018.35
2017-05-21T08:38:22.907Z,1018.41
2017-05-21T08:39:24.338Z,1018.41
2017-05-21T08:40:25.774Z,1018.46
2017-05-21T08:41:27.254Z,1018.41
2017-05-21T08:42:28.685Z,1018.40
2017-05-21T08:43:30.115Z,1018.38
2017-05-21T08:44:31.549Z,1018.33
2017-05-21T08:45:32.984Z,1018.41
2017-05-21T08:46:34.421Z,1018.41
2017-05-21T08:47:35.863Z,1018.37
2017-05-21T08:48:37.375Z,1018.35
2017-05-21T08:49:38.800Z,1018.37
2017-05-21T08:50:40.470Z,1018.37
2017-05-21T08:51:41.894Z,1018.33
2017-05-21T08:52:43.324Z,1018.44
2017-05-21T08:53:44.758Z,1018.40
2017-05-21T08:54:46.193Z,1018.44
2017-05-21T08:55:47.632Z,1018.47
2017-05-21T08:56:49.061Z,1018.52
2017-05-21T08:57:50.492Z,1018.48
2017-05-21T08:58:51.918Z,1018.48
2017-05-21T08:59:53.357Z,1018.52
2017-05-21T09:00:54.784Z,1018.53
2017-05-21T09:01:56.212Z,1018.49
2017-05-21T09:02:57.649Z,1018.46
2017-05-21T09:03:59.086Z,1018.48
2017-05-21T09:05:00.517Z,1018.50
2017-05-21T09:06:01.956Z,1018.50
2017-05-21T09:07:03.384Z,1018.42
2017-05-21T09:08:04.818Z,1018.45
2017-05-21T09:09:06.252Z,1018.42
2017-05-21T09:10:07.731Z,1018.42
2017-05-21T09:11:09.166Z,1018.42
2017-05-21T09:12:10.597Z,1018.43
2017-05-21T09:13:12.038Z,1018.48
2017-05-21T09:14:13.485Z,1018.55
2017-05-21T09:15:14.916Z,1018.50
2017-05-21T09:16:16.953Z,1018.53
2017-05-21T09:17:18.362Z,1018.49
2017-05-21T09:18:19.797Z,1018.41
2017-05-21T09:19:21.226Z,1018.42
2017-05-21T09:20:22.664Z,1018.44
2017-05-21T09:21:24.097Z,1018.49
2017-05-21T09:22:25.533Z,1018.53
2017-05-21T09:23:26.979Z,1018.47
2017-05-21T09:24:28.430Z,1018.46
2017-05-21T09:25:30.661Z,1018.58
2017-05-21T09:26:32.101Z,1018.51
2017-05-21T09:27:33.539Z,1018.52
2017-05-21T09:28:34.991Z,1018.50
2017-05-21T09:29:36.425Z,1018.47
2017-05-21T09:30:37.862Z,1018.42
2017-05-21T09:31:39.291Z,1018.50
2017-05-21T09:32:40.731Z,1018.46
2017-05-21T09:33:42.168Z,1018.49
2017-05-21T09:34:43.603Z,1018.44
2017-05-21T09:35:45.043Z,1018.46
2017-05-21T09:36:46.478Z,1018.45
2017-05-21T09:37:47.909Z,1018.40
2017-05-21T09:38:49.417Z,1018.34
2017-05-21T09:39:50.795Z,1018.36
2017-05-21T09:40:52.260Z,1018.37
2017-05-21T09:41:53.681Z,1018.35
2017-05-21T09:42:55.109Z,1018.39
2017-05-21T09:43:56.556Z,1018.37
2017-05-21T09:44:57.996Z,1018.37
2017-05-21T09:45:59.455Z,1018.37
2017-05-21T09:47:00.889Z,1018.37
2017-05-21T09:48:02.327Z,1018.39
2017-05-21T09:49:03.768Z,1018.36
2017-05-21T09:50:05.211Z,1018.37
2017-05-21T09:51:06.645Z,1018.41
2017-05-21T09:52:08.096Z,1018.34
2017-05-21T09:53:09.544Z,1018.35
2017-05-21T09:54:10.967Z,1018.32
2017-05-21T09:55:12.398Z,1018.32
2017-05-21T09:56:13.836Z,1018.38
2017-05-21T09:57:15.276Z,1018.38
2017-05-21T09:58:16.709Z,1018.43
2017-05-21T09:59:18.165Z,1018.42
2017-05-21T10:00:19.608Z,1018.38
2017-05-21T10:01:21.050Z,1018.38
2017-05-21T10:02:22.487Z,1018.36
2017-05-21T10:03:23.917Z,1018.36
2017-05-21T10:04:25.357Z,1018.40
2017-05-21T10:05:26.805Z,1018.40
2017-05-21T10:06:28.239Z,1018.39
2017-05-21T10:07:30.419Z,1018.39
2017-05-21T10:08:31.856Z,1018.39
2017-05-21T10:09:33.424Z,1018.33
2017-05-21T10:10:34.862Z,1018.39
2017-05-21T10:11:36.294Z,1018.38
2017-05-21T10:12:37.740Z,1018.34
2017-05-21T10:13:39.177Z,1018.32
2017-05-21T10:14:40.618Z,1018.35
2017-05-21T10:15:42.065Z,1018.28
2017-05-21T10:16:43.506Z,1018.28
2017-05-21T10:17:44.941Z,1018.30
2017-05-21T10:18:46.384Z,1018.28
2017-05-21T10:19:47.848Z,1018.26
2017-05-21T10:20:49.307Z,1018.28
2017-05-21T10:21:50.746Z,1018.23
2017-05-21T10:22:52.196Z,1018.20
2017-05-21T10:23:53.638Z,1018.18
2017-05-21T10:24:55.125Z,1018.23
2017-05-21T10:25:56.516Z,1018.23
2017-05-21T10:26:57.951Z,1018.18
2017-05-21T10:27:59.394Z,1018.21
2017-05-21T10:29:00.830Z,1018.23
2017-05-21T10:30:02.277Z,1018.18
2017-05-21T10:31:03.715Z,1018.20
2017-05-21T10:32:05.146Z,1018.23
2017-05-21T10:33:06.590Z,1018.17
2017-05-21T10:34:08.078Z,1018.19
2017-05-21T10:35:09.531Z,1018.18
2017-05-21T10:36:10.968Z,1018.15
2017-05-21T10:37:12.409Z,1018.13
2017-05-21T10:38:13.851Z,1018.17
2017-05-21T10:39:16.094Z,1018.17
2017-05-21T10:40:17.524Z,1018.17
2017-05-21T10:41:18.973Z,1018.17
2017-05-21T10:42:20.404Z,1018.16
2017-05-21T10:43:21.836Z,1018.16
2017-05-21T10:44:23.275Z,1018.14
2017-05-21T10:45:24.714Z,1018.12
2017-05-21T10:46:26.161Z,1018.12
2017-05-21T10:47:27.610Z,1018.13
2017-05-21T10:48:29.050Z,1018.13
2017-05-21T10:49:30.489Z,1018.15
2017-05-21T10:50:31.924Z,1018.14
2017-05-21T10:51:33.363Z,1018.09
2017-05-21T10:52:34.798Z,1018.09
2017-05-21T10:53:36.240Z,1018.08
2017-05-21T10:54:37.706Z,1018.04
2017-05-21T10:55:39.143Z,1018.06
2017-05-21T10:56:40.588Z,1018.07
2017-05-21T10:57:42.034Z,1018.04
2017-05-21T10:58:43.502Z,1018.04
2017-05-21T10:59:44.962Z,1017.96
2017-05-21T11:00:46.403Z,1017.96
2017-05-21T11:01:48.358Z,1018.01
2017-05-21T11:02:49.798Z,1017.95
2017-05-21T11:03:51.234Z,1017.91
2017-05-21T11:04:52.678Z,1017.93
2017-05-21T11:05:54.120Z,1017.95
2017-05-21T11:06:55.555Z,1017.97
2017-05-21T11:07:56.989Z,1017.96
2017-05-21T11:08:58.427Z,1017.95
2017-05-21T11:09:59.879Z,1017.92
2017-05-21T11:11:01.324Z,1017.89
2017-05-21T11:12:02.758Z,1017.89
2017-05-21T11:13:04.201Z,1017.92
2017-05-21T11:14:05.648Z,1017.89
2017-05-21T11:15:07.099Z,1017.85
2017-05-21T11:16:08.746Z,1017.85
2017-05-21T11:17:10.375Z,1017.92
2017-05-21T11:18:11.803Z,1017.83
2017-05-21T11:19:13.243Z,1017.82
2017-05-21T11:20:14.678Z,1017.85
2017-05-21T11:21:16.123Z,1017.81
2017-05-21T11:22:17.561Z,1017.89
2017-05-21T11:23:19.010Z,1017.90
2017-05-21T11:24:20.446Z,1017.89
2017-05-21T11:25:21.887Z,1017.91
2017-05-21T11:26:23.327Z,1017.89
2017-05-21T11:27:24.764Z,1017.90
2017-05-21T11:28:26.199Z,1017.87
2017-05-21T11:29:27.637Z,1017.93
2017-05-21T11:30:29.074Z,1017.88
2017-05-21T11:31:30.517Z,1017.90
2017-05-21T11:32:31.946Z,1017.80
2017-05-21T11:33:34.159Z,1017.84
2017-05-21T11:34:35.597Z,1017.87
2017-05-21T11:35:37.032Z,1017.86
2017-05-21T11:36:38.469Z,1017.83
2017-05-21T11:37:39.916Z,1017.85
2017-05-21T11:38:41.355Z,1017.82
2017-05-21T11:39:42.796Z,1017.86
2017-05-21T11:40:44.924Z,1017.84
2017-05-21T11:41:46.357Z,1017.80
2017-05-21T11:42:47.798Z,1017.77
2017-05-21T11:43:49.244Z,1017.82
2017-05-21T11:44:50.672Z,1017.78
2017-05-21T11:45:52.122Z,1017.78
2017-05-21T11:46:53.560Z,1017.74
2017-05-21T11:47:54.994Z,1017.74
2017-05-21T11:48:56.437Z,1017.68
2017-05-21T11:49:57.878Z,1017.68
2017-05-21T11:50:59.335Z,1017.65
2017-05-21T11:52:00.878Z,1017.62
2017-05-21T11:53:02.341Z,1017.62
2017-05-21T11:54:03.779Z,1017.61
2017-05-21T11:55:05.217Z,1017.66
2017-05-21T11:56:06.664Z,1017.69
2017-05-21T11:57:08.112Z,1017.66
2017-05-21T11:58:09.552Z,1017.69
2017-05-21T11:59:10.984Z,1017.65
2017-05-21T12:00:12.431Z,1017.65
2017-05-21T12:01:13.868Z,1017.67
2017-05-21T12:02:15.309Z,1017.64
2017-05-21T12:03:16.746Z,1017.63
2017-05-21T12:04:18.191Z,1017.54
2017-05-21T12:05:19.627Z,1017.55
2017-05-21T12:06:21.077Z,1017.52
2017-05-21T12:07:22.506Z,1017.48
2017-05-21T12:08:23.943Z,1017.57
2017-05-21T12:09:25.391Z,1017.56
2017-05-21T12:10:26.827Z,1017.56
2017-05-21T12:11:28.267Z,1017.58
2017-05-21T12:12:29.703Z,1017.60
2017-05-21T12:13:31.145Z,1017.64
2017-05-21T12:14:32.590Z,1017.58
2017-05-21T12:15:34.024Z,1017.55
2017-05-21T12:16:35.468Z,1017.58
2017-05-21T12:17:36.926Z,1017.49
2017-05-21T12:18:38.369Z,1017.51
2017-05-21T12:19:39.801Z,1017.52
2017-05-21T12:20:41.233Z,1017.55
2017-05-21T12:21:42.679Z,1017.49
2017-05-21T12:22:44.119Z,1017.48